Time;durP1;ratioP1;P1;durP2;ratioP2;P2;SDS_P1;SDS_P2;PMS_P1;PMS_P2;Temp;Humidity;BMP_temperature;BMP_pressure;BME280_temperature;BME280_humidity;BME280_pressure;Samples;Min_cycle;Max_cycle;Signal;HPM_P1;HPM_P2
2023/07/05 00:02:08;;;;;;;8.90;6.90;;;;;;;21.79;55.78;100331.54;105990;1254;63818;-72
2023/07/05 00:04:35;;;;;;;8.40;6.40;;;;;;;21.74;56.02;100329.86;105864;1256;61257;-72
2023/07/05 00:07:01;;;;;;;9.30;6.70;;;;;;;21.70;56.11;100327.42;105985;1256;61209;-73
2023/07/05 00:09:29;;;;;;;11.10;6.70;;;;;;;21.70;56.24;100323.73;105927;1254;65773;-73
2023/07/05 00:11:56;;;;;;;8.60;6.80;;;;;;;21.69;56.19;100325.18;105753;1253;61275;-73
2023/07/05 00:14:23;;;;;;;10.60;6.90;;;;;;;21.68;56.20;100326.13;105764;1254;63801;-73
2023/07/05 00:16:49;;;;;;;9.60;6.40;;;;;;;21.66;56.30;100325.29;105655;1254;61328;-72
2023/07/05 00:19:16;;;;;;;7.40;6.50;;;;;;;21.64;56.20;100324.09;105905;1252;61222;-73
2023/07/05 00:21:43;;;;;;;9.90;6.90;;;;;;;21.61;56.09;100329.10;105966;1256;66070;-72
2023/07/05 00:24:09;;;;;;;8.70;6.80;;;;;;;21.56;56.08;100326.20;105866;1256;61252;-73
2023/07/05 00:26:37;;;;;;;11.90;7.40;;;;;;;21.50;56.27;100322.64;105961;1254;64176;-75
2023/07/05 00:29:03;;;;;;;9.40;6.90;;;;;;;21.47;56.47;100320.80;105785;1258;61387;-71
2023/07/05 00:31:30;;;;;;;9.50;7.30;;;;;;;21.43;56.60;100319.83;105880;1254;61228;-72
2023/07/05 00:33:58;;;;;;;8.50;6.90;;;;;;;21.41;56.86;100321.80;105763;1258;65975;-72
2023/07/05 00:36:24;;;;;;;9.00;6.70;;;;;;;21.40;56.80;100322.96;105970;1254;61342;-73
2023/07/05 00:38:51;;;;;;;11.90;7.40;;;;;;;21.39;56.82;100322.05;105789;1254;61295;-72
2023/07/05 00:41:18;;;;;;;9.40;7.20;;;;;;;21.38;57.01;100321.08;105743;1257;61336;-72
2023/07/05 00:43:48;;;;;;;9.40;6.70;;;;;;;21.37;57.04;100323.94;105989;1252;61160;-72
2023/07/05 00:46:25;;;;;;;8.30;7.00;;;;;;;21.34;57.14;100321.17;105945;1252;64545;-72
2023/07/05 00:49:03;;;;;;;8.30;7.20;;;;;;;21.30;57.17;100322.56;105674;1254;61407;-72
2023/07/05 00:51:40;;;;;;;9.60;6.80;;;;;;;21.26;57.29;100324.23;105742;1254;63961;-72
2023/07/05 00:54:07;;;;;;;9.40;7.50;;;;;;;21.23;57.19;100326.41;105999;1254;61358;-73
2023/07/05 00:56:45;;;;;;;9.60;7.10;;;;;;;21.20;57.43;100323.45;105911;1257;61230;-73
2023/07/05 00:59:12;;;;;;;9.40;7.50;;;;;;;21.17;57.55;100324.88;106062;1254;65996;-72
2023/07/05 01:01:41;;;;;;;9.50;7.40;;;;;;;21.16;57.72;100321.23;105708;1254;61446;-73
2023/07/05 01:04:31;;;;;;;9.00;7.30;;;;;;;21.14;57.65;100323.45;105897;1254;63991;-73
2023/07/05 01:06:58;;;;;;;9.80;7.30;;;;;;;21.13;57.89;100320.36;105994;1256;61288;-72
2023/07/05 01:09:26;;;;;;;10.30;7.10;;;;;;;21.12;57.94;100319.40;105651;1254;61304;-73
2023/07/05 01:11:59;;;;;;;8.80;6.90;;;;;;;21.11;57.91;100316.87;106080;1253;66052;-73
2023/07/05 01:14:39;;;;;;;9.20;7.50;;;;;;;21.11;58.05;100311.58;105964;1254;61285;-73
2023/07/05 01:17:40;;;;;;;7.90;6.60;;;;;;;21.10;58.08;100308.64;105967;1254;64110;-72
2023/07/05 01:20:47;;;;;;;8.70;6.70;;;;;;;21.10;58.13;100303.89;106040;1254;61167;-72
2023/07/05 01:23:28;;;;;;;8.90;6.80;;;;;;;21.08;58.13;100303.50;105756;1256;59286;-73
2023/07/05 01:26:14;;;;;;;9.10;7.20;;;;;;;21.06;58.23;100304.52;106032;1253;65814;-73
2023/07/05 01:28:54;;;;;;;9.50;6.90;;;;;;;21.04;58.35;100300.37;105941;1255;61141;-73
2023/07/05 01:31:43;;;;;;;8.90;6.90;;;;;;;21.02;58.50;100295.25;105788;1254;63751;-73
2023/07/05 01:34:11;;;;;;;8.80;6.70;;;;;;;21.01;58.49;100295.36;105791;1254;61161;-73
2023/07/05 01:36:38;;;;;;;8.40;6.60;;;;;;;21.00;58.50;100294.37;105778;1254;61350;-73
2023/07/05 01:39:05;;;;;;;9.00;7.20;;;;;;;20.99;58.73;100291.72;105733;1257;65872;-73
2023/07/05 01:41:33;;;;;;;8.80;6.50;;;;;;;20.99;58.87;100290.02;105765;1254;61249;-73
2023/07/05 01:43:59;;;;;;;8.00;6.60;;;;;;;21.00;58.86;100289.70;105770;1254;61308;-73
2023/07/05 01:46:27;;;;;;;7.40;6.50;;;;;;;21.00;58.57;100289.79;105812;1256;61251;-73
2023/07/05 01:49:10;;;;;;;8.00;6.80;;;;;;;20.97;58.65;100285.30;105735;1253;61326;-72
2023/07/05 01:51:43;;;;;;;8.90;6.70;;;;;;;20.92;58.76;100285.69;105608;1258;66142;-72
2023/07/05 01:54:27;;;;;;;8.30;7.00;;;;;;;20.91;58.94;100291.02;105701;1253;61256;-72
2023/07/05 01:57:00;;;;;;;10.10;7.20;;;;;;;20.89;59.08;100290.75;105831;1254;63847;-72
2023/07/05 01:59:28;;;;;;;;;;;;;;;20.88;59.26;100292.31;105759;1253;61359;-72
2023/07/05 02:01:58;;;;;;;11.50;6.50;;;;;;;20.87;59.23;100292.77;106038;1252;61278;-71
2023/07/05 02:04:24;;;;;;;8.10;6.80;;;;;;;20.85;59.41;100292.32;105869;1258;66035;-72
2023/07/05 02:06:51;;;;;;;8.50;6.40;;;;;;;20.85;59.55;100291.21;105716;1254;61253;-72
2023/07/05 02:09:19;;;;;;;8.10;6.60;;;;;;;20.89;59.49;100292.45;105723;1258;62831;-73
2023/07/05 02:11:45;;;;;;;7.70;6.60;;;;;;;20.91;59.56;100299.48;105989;1254;61261;-74
2023/07/05 02:14:13;;;;;;;8.20;6.90;;;;;;;20.94;59.33;100301.64;105960;1257;61245;-72
2023/07/05 02:16:40;;;;;;;8.50;6.50;;;;;;;20.94;59.35;100297.49;105792;1256;65814;-73
2023/07/05 02:19:06;;;;;;;7.60;6.40;;;;;;;20.95;59.27;100294.73;105728;1256;61350;-75
2023/07/05 02:21:33;;;;;;;9.20;6.10;;;;;;;20.95;59.41;100298.83;105784;1255;61283;-72
2023/07/05 02:24:00;;;;;;;7.70;6.90;;;;;;;20.96;59.19;100295.08;105789;1253;61397;-73
2023/07/05 02:26:27;;;;;;;7.50;6.30;;;;;;;20.95;59.24;100290.70;105962;1252;61333;-74
2023/07/05 02:28:53;;;;;;;9.10;6.50;;;;;;;20.94;59.36;100288.39;105966;1256;65673;-73
2023/07/05 02:31:20;;;;;;;8.20;6.50;;;;;;;20.93;59.38;100285.48;105991;1253;61349;-73
2023/07/05 02:33:47;;;;;;;11.00;6.80;;;;;;;20.93;59.40;100286.09;105841;1256;64117;-75
2023/07/05 02:36:14;;;;;;;10.40;6.50;;;;;;;20.95;59.25;100289.34;105805;1254;61204;-73
2023/07/05 02:38:41;;;;;;;8.70;6.50;;;;;;;20.95;59.23;100285.48;105689;1254;61276;-74
2023/07/05 02:41:07;;;;;;;9.70;6.30;;;;;;;20.96;59.21;100287.52;105725;1256;65998;-74
2023/07/05 02:43:34;;;;;;;9.60;6.80;;;;;;;20.97;59.20;100286.21;105812;1254;61333;-73
2023/07/05 02:46:01;;;;;;;9.50;6.80;;;;;;;20.97;59.21;100288.48;105767;1256;63790;-73
2023/07/05 02:48:29;;;;;;;8.40;6.50;;;;;;;20.97;59.46;100290.30;105814;1254;61195;-73
2023/07/05 02:50:56;;;;;;;8.40;6.50;;;;;;;20.99;59.50;100290.89;105804;1253;61208;-75
2023/07/05 02:53:22;;;;;;;8.80;6.50;;;;;;;21.00;59.44;100283.80;105756;1256;66156;-75
2023/07/05 02:55:49;;;;;;;9.40;6.50;;;;;;;21.01;59.69;100281.03;105853;1254;61218;-74
2023/07/05 02:58:16;;;;;;;11.10;6.50;;;;;;;21.03;59.70;100280.77;105800;1254;64009;-73
2023/07/05 03:00:44;;;;;;;8.90;6.90;;;;;;;21.06;59.64;100279.44;105791;1254;61359;-73
2023/07/05 03:03:10;;;;;;;8.90;6.70;;;;;;;21.08;59.65;100271.36;105768;1254;61266;-72
2023/07/05 03:05:39;;;;;;;10.60;6.60;;;;;;;21.13;59.72;100269.63;105843;1254;65856;-72
2023/07/05 03:08:06;;;;;;;9.40;7.10;;;;;;;21.17;59.77;100271.11;105852;1254;61434;-72
2023/07/05 03:10:39;;;;;;;9.10;6.40;;;;;;;21.22;59.85;100277.89;105922;1256;63921;-72
2023/07/05 03:13:06;;;;;;;9.90;6.60;;;;;;;21.28;59.82;100276.19;105954;1254;61326;-72
2023/07/05 03:15:33;;;;;;;9.00;7.10;;;;;;;21.35;59.82;100273.23;105915;1253;61387;-76
2023/07/05 03:17:59;;;;;;;8.90;6.30;;;;;;;21.40;59.81;100272.70;105874;1256;65980;-73
2023/07/05 03:20:26;;;;;;;10.20;6.60;;;;;;;21.47;59.73;100273.25;106003;1254;61240;-73
2023/07/05 03:22:53;;;;;;;10.50;7.00;;;;;;;21.51;59.79;100270.42;106033;1254;63920;-72
2023/07/05 03:25:20;;;;;;;7.90;6.40;;;;;;;21.56;59.87;100269.94;105874;1254;61336;-73
2023/07/05 03:27:47;;;;;;;8.20;6.70;;;;;;;21.62;59.90;100268.31;105971;1254;61413;-74
2023/07/05 03:30:14;;;;;;;9.40;6.60;;;;;;;21.68;60.05;100268.60;105971;1255;65896;-75
2023/07/05 03:32:43;;;;;;;7.20;6.20;;;;;;;21.74;59.95;100271.54;105904;1254;61349;-73
2023/07/05 03:35:10;;;;;;;10.20;6.50;;;;;;;21.82;60.13;100267.04;105858;1254;63842;-75
2023/07/05 03:37:37;;;;;;;10.30;7.30;;;;;;;21.89;60.18;100266.80;105899;1256;61260;-75
2023/07/05 03:40:05;;;;;;;8.50;7.00;;;;;;;21.96;60.22;100266.95;105721;1255;61208;-74
2023/07/05 03:42:33;;;;;;;8.80;6.80;;;;;;;22.05;60.37;100269.38;105882;1256;66101;-72
2023/07/05 03:45:00;;;;;;;8.70;6.70;;;;;;;22.14;60.47;100273.90;105818;1254;61276;-73
2023/07/05 03:47:27;;;;;;;7.10;6.30;;;;;;;22.22;60.46;100276.80;106079;1256;64067;-72
2023/07/05 03:49:54;;;;;;;10.30;6.90;;;;;;;22.32;60.52;100280.24;105933;1254;61221;-72
2023/07/05 03:52:22;;;;;;;12.60;6.80;;;;;;;22.42;60.60;100283.43;105846;1254;61234;-72
2023/07/05 03:54:49;;;;;;;7.40;6.50;;;;;;;22.50;60.66;100287.77;105962;1256;66047;-73
2023/07/05 03:57:15;;;;;;;8.90;6.60;;;;;;;22.56;60.79;100285.67;105927;1254;61329;-72
2023/07/05 03:59:42;;;;;;;8.70;6.30;;;;;;;22.65;60.83;100282.94;105935;1254;64074;-72
2023/07/05 04:02:08;;;;;;;9.40;6.80;;;;;;;22.77;60.76;100284.88;105941;1254;61294;-74
2023/07/05 04:04:35;;;;;;;7.70;6.40;;;;;;;22.88;60.58;100285.17;106057;1254;61240;-71
2023/07/05 04:07:02;;;;;;;7.70;6.10;;;;;;;22.98;60.27;100287.64;105873;1256;61301;-73
2023/07/05 04:09:32;;;;;;;6.80;5.70;;;;;;;23.11;59.79;100289.06;106094;1254;61353;-72
2023/07/05 04:11:58;;;;;;;7.40;6.20;;;;;;;23.28;59.15;100285.52;106687;1254;61266;-72
2023/07/05 04:14:25;;;;;;;10.40;5.90;;;;;;;23.45;58.84;100286.89;106235;1254;61319;-72
2023/07/05 04:16:51;;;;;;;9.30;6.40;;;;;;;23.57;59.04;100293.03;106068;1254;61240;-74
2023/07/05 04:19:18;;;;;;;10.50;7.00;;;;;;;23.70;59.16;100296.73;106100;1254;61359;-75
2023/07/05 04:21:45;;;;;;;11.00;6.60;;;;;;;23.88;59.28;100296.95;105946;1255;61253;-70
2023/07/05 04:24:11;;;;;;;10.00;7.20;;;;;;;24.03;59.43;100297.63;106071;1254;61266;-72
2023/07/05 04:26:38;;;;;;;9.80;7.40;;;;;;;24.16;59.40;100300.00;105898;1256;61343;-72
2023/07/05 04:29:05;;;;;;;9.00;7.00;;;;;;;24.29;59.49;100304.31;105819;1254;61202;-72
2023/07/05 04:31:32;;;;;;;10.50;6.90;;;;;;;24.43;59.36;100300.39;105907;1252;64838;-72
2023/07/05 04:34:00;;;;;;;10.70;7.30;;;;;;;24.55;59.37;100298.55;105948;1254;61215;-72
2023/07/05 04:36:26;;;;;;;10.30;7.50;;;;;;;24.63;59.22;100297.89;105984;1254;63797;-73
2023/07/05 04:39:00;;;;;;;10.70;8.00;;;;;;;24.76;59.12;100298.95;105949;1254;61151;-72
2023/07/05 04:41:27;;;;;;;9.50;7.50;;;;;;;24.86;59.00;100298.48;105903;1255;61346;-71
2023/07/05 04:43:54;;;;;;;9.10;7.40;;;;;;;24.94;58.80;100296.64;105915;1256;66157;-71
2023/07/05 04:46:21;;;;;;;10.10;7.10;;;;;;;25.05;58.64;100298.99;106019;1256;61320;-72
2023/07/05 04:48:48;;;;;;;9.90;7.10;;;;;;;25.12;58.40;100300.13;105741;1254;63943;-73
2023/07/05 04:51:15;;;;;;;8.30;6.70;;;;;;;25.20;58.11;100300.65;105801;1254;61208;-72
2023/07/05 04:53:42;;;;;;;9.30;6.80;;;;;;;25.30;57.65;100301.20;105763;1254;61327;-72
2023/07/05 04:56:11;;;;;;;10.30;6.70;;;;;;;25.39;57.40;100298.67;105748;1256;65885;-72
2023/07/05 04:58:38;;;;;;;8.70;6.40;;;;;;;25.51;56.88;100296.24;105926;1254;61222;-72
2023/07/05 05:01:07;;;;;;;9.20;6.50;;;;;;;25.57;56.20;100292.48;106023;1256;63687;-74
2023/07/05 05:03:34;;;;;;;10.30;6.80;;;;;;;25.64;55.72;100293.70;105978;1254;61188;-74
2023/07/05 05:06:01;;;;;;;7.70;6.30;;;;;;;25.70;55.22;100298.62;105978;1254;61202;-72
2023/07/05 05:08:28;;;;;;;8.30;5.80;;;;;;;25.80;54.62;100301.33;105781;1256;66037;-73
2023/07/05 05:11:02;;;;;;;7.00;5.70;;;;;;;25.90;54.48;100302.27;105990;1254;61335;-74
2023/07/05 05:13:30;;;;;;;10.80;6.70;;;;;;;26.00;54.23;100303.92;105859;1254;63832;-73
2023/07/05 05:15:57;;;;;;;7.50;6.10;;;;;;;26.11;54.13;100301.73;105809;1254;61221;-73
2023/07/05 05:18:27;;;;;;;10.10;6.10;;;;;;;26.19;53.99;100294.59;105694;1254;61243;-72
2023/07/05 05:20:54;;;;;;;8.70;6.00;;;;;;;26.27;53.99;100298.20;105748;1256;66025;-73
2023/07/05 05:23:22;;;;;;;7.90;6.20;;;;;;;26.39;53.71;100302.08;105807;1254;62103;-73
2023/07/05 05:25:49;;;;;;;8.90;6.20;;;;;;;26.48;53.43;100299.59;105734;1254;64051;-73
2023/07/05 05:28:16;;;;;;;8.50;5.90;;;;;;;26.56;52.98;100303.21;105678;1256;61249;-73
2023/07/05 05:30:43;;;;;;;7.40;5.80;;;;;;;26.61;52.61;100307.14;105778;1253;61219;-73
2023/07/05 05:33:12;;;;;;;7.80;5.50;;;;;;;26.69;52.17;100310.61;105963;1254;64978;-73
2023/07/05 05:35:43;;;;;;;8.70;5.90;;;;;;;26.75;51.68;100310.67;105915;1254;61381;-73
2023/07/05 05:38:09;;;;;;;8.20;5.60;;;;;;;26.79;51.24;100308.36;105805;1254;64002;-73
2023/07/05 05:40:36;;;;;;;7.60;5.60;;;;;;;26.87;50.95;100306.84;105612;1254;61315;-73
2023/07/05 05:43:03;;;;;;;8.60;5.90;;;;;;;26.91;50.80;100304.05;105871;1254;61295;-73
2023/07/05 05:45:30;;;;;;;7.40;4.90;;;;;;;26.97;50.55;100304.27;105756;1259;65826;-73
2023/07/05 05:47:57;;;;;;;7.70;5.50;;;;;;;27.07;49.96;100305.27;105691;1254;61307;-72
2023/07/05 05:50:24;;;;;;;8.30;5.40;;;;;;;27.15;49.26;100304.45;105898;1252;63845;-72
2023/07/05 05:52:51;;;;;;;9.60;5.20;;;;;;;27.18;48.70;100304.90;105856;1254;61254;-72
2023/07/05 05:55:19;;;;;;;7.10;5.10;;;;;;;27.19;48.40;100307.54;106013;1254;61326;-72
2023/07/05 05:57:46;;;;;;;6.30;5.30;;;;;;;27.21;48.38;100306.65;105959;1256;65890;-72
2023/07/05 06:00:13;;;;;;;9.90;5.10;;;;;;;27.21;48.16;100308.81;105822;1254;61351;-72
2023/07/05 06:02:41;;;;;;;8.60;5.50;;;;;;;27.24;48.04;100309.23;105935;1255;64019;-72
2023/07/05 06:05:09;;;;;;;8.30;5.10;;;;;;;27.23;48.17;100309.39;105928;1254;61285;-72
2023/07/05 06:07:38;;;;;;;10.00;5.00;;;;;;;27.24;47.97;100308.66;106016;1253;61253;-73
2023/07/05 06:10:06;;;;;;;7.10;4.90;;;;;;;27.28;47.58;100307.11;105895;1256;66157;-72
2023/07/05 06:12:32;;;;;;;8.00;4.80;;;;;;;27.34;47.35;100308.40;105989;1256;61346;-72
2023/07/05 06:14:59;;;;;;;6.10;5.10;;;;;;;27.39;47.10;100311.23;105906;1256;64076;-72
2023/07/05 06:17:26;;;;;;;7.70;5.40;;;;;;;27.43;46.99;100312.15;106023;1252;61279;-72
2023/07/05 06:19:53;;;;;;;10.90;5.20;;;;;;;27.47;46.84;100310.02;106041;1256;61143;-72
2023/07/05 06:22:20;;;;;;;8.10;5.50;;;;;;;27.55;46.74;100314.18;105865;1256;66110;-72
2023/07/05 06:24:47;;;;;;;8.20;5.50;;;;;;;27.65;46.33;100309.73;106002;1254;61256;-71
2023/07/05 06:27:14;;;;;;;8.90;5.60;;;;;;;27.75;46.55;100303.60;105919;1256;61311;-72
2023/07/05 06:29:40;;;;;;;11.70;5.80;;;;;;;27.86;47.00;100303.20;105954;1254;61227;-72
2023/07/05 06:32:07;;;;;;;11.10;5.90;;;;;;;27.97;46.96;100299.92;105986;1253;61349;-72
2023/07/05 06:34:34;;;;;;;6.90;5.70;;;;;;;28.04;46.92;100298.56;105871;1256;66082;-71
2023/07/05 06:37:01;;;;;;;11.70;5.80;;;;;;;28.14;47.12;100297.86;105784;1256;61278;-72
2023/07/05 06:39:27;;;;;;;8.00;6.30;;;;;;;28.26;46.95;100292.58;106019;1254;63723;-72
2023/07/05 06:41:54;;;;;;;11.40;6.40;;;;;;;28.37;47.00;100294.41;105790;1257;61235;-73
2023/07/05 06:44:21;;;;;;;9.60;6.60;;;;;;;28.45;46.58;100290.28;106057;1253;61330;-72
2023/07/05 06:46:47;;;;;;;9.70;6.30;;;;;;;28.52;46.67;100290.64;105885;1256;65813;-72
2023/07/05 06:49:14;;;;;;;9.80;6.90;;;;;;;28.61;46.75;100292.31;105867;1256;61320;-72
2023/07/05 06:51:41;;;;;;;8.50;6.40;;;;;;;28.74;46.86;100292.73;106098;1256;63997;-72
2023/07/05 06:54:08;;;;;;;6.90;6.20;;;;;;;28.90;46.54;100293.21;105845;1254;61189;-72
2023/07/05 06:56:36;;;;;;;10.80;6.80;;;;;;;29.00;46.46;100292.98;105846;1254;61275;-72
2023/07/05 06:59:02;;;;;;;10.10;6.70;;;;;;;29.09;45.94;100296.40;106018;1256;66071;-72
2023/07/05 07:01:31;;;;;;;11.40;6.70;;;;;;;29.16;45.73;100294.61;106043;1256;61270;-72
2023/07/05 07:03:58;;;;;;;8.40;6.80;;;;;;;29.21;45.92;100297.04;105668;1254;219417;-72
2023/07/05 07:06:25;;;;;;;7.10;6.40;;;;;;;29.23;45.42;100299.04;105802;1254;61287;-72
2023/07/05 07:08:52;;;;;;;10.30;6.40;;;;;;;29.31;45.53;100296.34;105824;1255;61247;-72
2023/07/05 07:11:18;;;;;;;11.10;6.20;;;;;;;29.40;45.09;100296.20;105797;1256;66083;-72
2023/07/05 07:13:45;;;;;;;8.00;6.20;;;;;;;29.47;44.60;100297.34;106004;1254;61347;-72
2023/07/05 07:16:13;;;;;;;8.30;6.50;;;;;;;29.51;44.51;100296.52;105974;1254;63817;-73
2023/07/05 07:18:43;;;;;;;9.10;6.20;;;;;;;29.58;44.66;100295.10;105824;1257;61219;-72
2023/07/05 07:21:10;;;;;;;7.80;6.40;;;;;;;29.68;44.30;100300.37;105765;1254;61333;-73
2023/07/05 07:23:37;;;;;;;12.30;6.40;;;;;;;29.73;44.00;100295.73;105600;1254;66019;-72
2023/07/05 07:26:05;;;;;;;7.90;6.30;;;;;;;29.78;43.83;100297.20;106043;1253;61259;-72
2023/07/05 07:28:32;;;;;;;8.00;6.30;;;;;;;29.81;43.50;100298.65;105836;1257;63889;-73
2023/07/05 07:31:19;;;;;;;8.40;6.20;;;;;;;29.83;43.42;100299.17;105772;1257;61180;-73
2023/07/05 07:33:47;;;;;;;12.90;6.10;;;;;;;29.85;43.61;100298.08;105761;1254;61299;-73
2023/07/05 07:36:16;;;;;;;9.00;5.50;;;;;;;29.89;43.58;100292.83;105861;1254;64547;-73
2023/07/05 07:38:43;;;;;;;8.90;6.30;;;;;;;29.97;43.47;100292.45;105954;1256;61196;-73
2023/07/05 07:41:16;;;;;;;9.40;6.10;;;;;;;30.05;43.47;100289.23;105626;1257;64077;-73
2023/07/05 07:43:43;;;;;;;11.30;6.10;;;;;;;30.10;43.52;100290.86;105826;1258;61266;-73
2023/07/05 07:46:15;;;;;;;10.50;6.10;;;;;;;30.21;43.84;100289.42;106005;1254;61215;-73
2023/07/05 07:48:43;;;;;;;7.60;6.30;;;;;;;30.32;43.55;100289.63;106021;1256;65891;-71
2023/07/05 07:51:12;;;;;;;6.20;5.60;;;;;;;30.43;43.45;100289.27;106081;1256;61314;-71
2023/07/05 07:53:59;;;;;;;8.50;5.70;;;;;;;30.53;43.04;100290.85;106192;1254;64047;-73
2023/07/05 07:56:26;;;;;;;9.20;6.20;;;;;;;30.58;42.66;100290.41;106185;1257;61313;-74
2023/07/05 07:58:54;;;;;;;7.10;5.80;;;;;;;30.72;42.45;100294.09;105829;1256;61227;-74
2023/07/05 08:01:25;;;;;;;6.80;5.50;;;;;;;30.85;42.59;100294.81;105812;1254;66114;-74
2023/07/05 08:03:53;;;;;;;8.50;5.30;;;;;;;30.98;42.31;100295.05;105756;1254;61233;-74
2023/07/05 08:06:20;;;;;;;8.40;5.40;;;;;;;31.13;41.91;100297.87;105826;1256;64063;-73
2023/07/05 08:08:48;;;;;;;8.20;5.60;;;;;;;31.28;42.00;100303.48;105770;1254;61288;-73
2023/07/05 08:11:14;;;;;;;7.00;5.70;;;;;;;31.44;41.91;100306.14;105760;1252;61320;-73
2023/07/05 08:13:44;;;;;;;9.90;5.30;;;;;;;31.60;41.42;100309.70;105681;1257;65827;-73
2023/07/05 08:16:11;;;;;;;6.60;4.80;;;;;;;31.72;40.89;100308.75;105703;1254;61287;-73
2023/07/05 08:18:38;;;;;;;8.80;5.10;;;;;;;31.82;40.74;100303.42;105608;1259;63779;-73
2023/07/05 08:21:04;;;;;;;6.50;4.60;;;;;;;31.89;40.53;100299.59;105792;1257;61214;-73
2023/07/05 08:23:31;;;;;;;6.00;4.80;;;;;;;32.00;39.37;100299.98;105846;1254;61236;-73
2023/07/05 08:26:00;;;;;;;10.80;5.30;;;;;;;32.00;39.28;100301.90;105872;1256;65890;-72
2023/07/05 08:28:27;;;;;;;36.30;6.10;;;;;;;31.95;39.45;100306.18;105914;1255;61228;-73
2023/07/05 08:30:58;;;;;;;9.00;4.60;;;;;;;32.00;39.28;100306.48;105869;1256;64087;-73
2023/07/05 08:33:26;;;;;;;6.50;4.90;;;;;;;32.04;38.77;100307.48;105708;1258;61160;-72
2023/07/05 08:36:05;;;;;;;7.70;4.70;;;;;;;32.07;38.65;100309.04;105832;1254;61266;-72
2023/07/05 08:38:33;;;;;;;5.10;4.60;;;;;;;32.10;38.47;100305.99;105655;1260;65959;-73
2023/07/05 08:41:25;;;;;;;7.70;4.80;;;;;;;32.25;38.33;100302.85;105936;1266;61262;-73
2023/07/05 08:44:24;;;;;;;8.50;4.50;;;;;;;32.39;38.04;100296.13;105853;1259;64068;-73
2023/07/05 08:47:00;;;;;;;6.00;4.90;;;;;;;32.46;37.57;100296.49;105782;1254;61093;-72
2023/07/05 08:49:40;;;;;;;14.70;5.20;;;;;;;32.55;37.55;100294.17;105723;1259;61348;-73
2023/07/05 08:52:37;;;;;;;7.70;4.60;;;;;;;32.61;37.82;100292.44;105762;1259;66059;-74
2023/07/05 08:55:08;;;;;;;5.20;4.30;;;;;;;32.70;37.74;100293.83;105675;1259;61278;-71
2023/07/05 08:57:53;;;;;;;7.30;4.90;;;;;;;32.79;37.86;100286.48;105964;1256;65676;-73
2023/07/05 09:00:29;;;;;;;7.10;4.90;;;;;;;32.91;37.78;100283.51;105625;1267;61238;-72
2023/07/05 09:02:55;;;;;;;5.00;4.30;;;;;;;33.00;37.81;100282.37;105990;1254;61336;-73
2023/07/05 09:05:24;;;;;;;4.90;4.10;;;;;;;33.13;37.47;100275.65;105813;1258;66004;-72
2023/07/05 09:08:13;;;;;;;5.30;4.30;;;;;;;33.22;37.24;100275.75;105839;1257;61260;-72
2023/07/05 09:10:42;;;;;;;7.50;4.40;;;;;;;33.32;36.97;100274.77;106025;1257;62708;-73
2023/07/05 09:13:30;;;;;;;6.90;3.80;;;;;;;33.42;36.76;100279.49;105931;1260;61146;-73
2023/07/05 09:16:12;;;;;;;8.00;4.10;;;;;;;33.47;35.47;100272.53;105655;1260;61327;-73
2023/07/05 09:19:10;;;;;;;6.10;3.50;;;;;;;33.60;35.37;100272.02;105983;1254;66254;-73
2023/07/05 09:21:42;;;;;;;5.20;3.90;;;;;;;33.79;33.93;100266.44;105995;1257;61208;-73
2023/07/05 09:24:23;;;;;;;4.20;3.80;;;;;;;33.95;34.03;100265.09;106040;1255;62992;-73
2023/07/05 09:26:55;;;;;;;5.50;3.50;;;;;;;34.14;34.02;100262.41;105966;1257;61324;-72
2023/07/05 09:29:29;;;;;;;5.10;3.50;;;;;;;34.27;33.58;100263.40;105907;1257;61215;-73
2023/07/05 09:31:56;;;;;;;6.20;3.50;;;;;;;34.37;33.35;100266.92;105910;1255;65828;-73
2023/07/05 09:34:38;;;;;;;5.00;3.80;;;;;;;34.48;33.40;100269.73;105928;1257;61210;-74
2023/07/05 09:37:20;;;;;;;3.70;3.30;;;;;;;34.58;32.87;100267.10;106027;1254;63920;-74
2023/07/05 09:40:06;;;;;;;5.80;3.10;;;;;;;34.63;32.12;100263.38;106034;1266;61259;-74
2023/07/05 09:43:14;;;;;;;3.80;3.30;;;;;;;34.67;31.24;100267.20;105853;1254;61286;-74
2023/07/05 09:45:40;;;;;;;3.60;3.20;;;;;;;34.74;30.81;100266.60;105264;1260;65809;-72
2023/07/05 09:48:10;;;;;;;3.90;3.40;;;;;;;34.81;30.86;100268.25;105258;1260;61503;-73
2023/07/05 09:50:37;;;;;;;5.50;3.10;;;;;;;34.94;31.10;100266.83;105502;1260;64183;-74
2023/07/05 09:53:29;;;;;;;7.50;3.40;;;;;;;35.15;31.18;100268.80;105639;1253;61122;-74
2023/07/05 09:56:05;;;;;;;4.40;3.30;;;;;;;35.25;30.44;100271.69;105689;1254;61209;-73
2023/07/05 09:58:34;;;;;;;4.70;3.40;;;;;;;35.29;29.84;100274.27;105862;1254;64868;-73
2023/07/05 10:01:04;;;;;;;4.10;3.10;;;;;;;35.35;29.53;100272.42;105931;1256;61320;-73
2023/07/05 10:03:49;;;;;;;4.20;3.00;;;;;;;35.39;28.62;100269.54;105769;1259;63822;-72
2023/07/05 10:06:16;;;;;;;3.80;3.30;;;;;;;35.46;28.74;100273.98;105831;1259;61154;-73
2023/07/05 10:08:44;;;;;;;6.60;3.40;;;;;;;35.56;28.76;100275.21;106011;1257;61343;-73
2023/07/05 10:11:23;;;;;;;6.30;3.40;;;;;;;35.65;29.36;100274.50;106002;1254;65857;-73
2023/07/05 10:14:05;;;;;;;4.60;3.50;;;;;;;35.74;29.20;100273.80;105812;1257;61317;-74
2023/07/05 10:16:53;;;;;;;4.70;3.60;;;;;;;35.82;28.93;100277.58;105823;1258;64014;-73
2023/07/05 10:19:30;;;;;;;5.70;3.00;;;;;;;35.90;28.37;100275.31;105845;1257;61177;-72
2023/07/05 10:22:04;;;;;;;9.10;3.00;;;;;;;36.00;27.75;100274.76;105810;1268;61383;-73
2023/07/05 10:24:32;;;;;;;3.10;2.70;;;;;;;36.19;26.67;100274.41;105896;1257;65796;-73
2023/07/05 10:27:12;;;;;;;2.80;2.50;;;;;;;36.32;23.45;100274.03;105960;1260;61208;-74
2023/07/05 10:29:39;;;;;;;3.80;2.80;;;;;;;36.38;23.76;100271.23;105766;1254;62619;-73
2023/07/05 10:32:15;;;;;;;6.20;3.10;;;;;;;36.49;25.49;100272.62;106009;1254;61180;-73
2023/07/05 10:34:45;;;;;;;3.10;2.80;;;;;;;36.68;26.74;100277.90;105872;1252;61240;-73
2023/07/05 10:37:28;;;;;;;4.40;3.40;;;;;;;36.79;25.67;100273.27;105966;1258;65717;-73
2023/07/05 10:39:56;;;;;;;5.00;3.30;;;;;;;36.88;26.92;100272.73;105885;1257;61206;-75
2023/07/05 10:42:24;;;;;;;4.50;3.20;;;;;;;37.05;27.47;100274.72;105796;1256;64016;-73
2023/07/05 10:44:51;;;;;;;3.40;2.80;;;;;;;37.15;25.92;100276.64;106083;1254;61269;-73
2023/07/05 10:47:17;;;;;;;3.70;3.10;;;;;;;37.25;25.49;100279.52;105738;1255;61240;-72
2023/07/05 10:49:46;;;;;;;3.20;2.80;;;;;;;37.38;24.80;100277.67;105745;1260;65853;-73
2023/07/05 10:52:15;;;;;;;5.60;3.00;;;;;;;37.42;25.31;100278.34;105849;1256;61314;-73
2023/07/05 10:54:57;;;;;;;4.00;2.90;;;;;;;37.44;25.03;100273.90;106026;1256;64170;-73
2023/07/05 10:57:33;;;;;;;5.00;2.90;;;;;;;37.49;24.97;100267.91;105964;1254;61135;-73
2023/07/05 11:00:23;;;;;;;4.20;2.90;;;;;;;37.63;25.22;100267.98;105851;1266;61193;-73
2023/07/05 11:03:13;;;;;;;4.20;2.60;;;;;;;37.91;24.21;100270.34;105794;1257;66130;-73
2023/07/05 11:05:44;;;;;;;3.80;2.90;;;;;;;38.13;23.36;100273.16;105837;1255;62991;-73
2023/07/05 11:08:28;;;;;;;3.80;2.50;;;;;;;38.35;22.69;100270.98;105849;1255;64674;-73
2023/07/05 11:10:56;;;;;;;3.60;2.40;;;;;;;38.58;21.95;100270.09;105826;1257;61250;-73
2023/07/05 11:13:24;;;;;;;5.60;2.70;;;;;;;38.70;22.41;100271.44;105820;1254;61909;-73
2023/07/05 11:15:51;;;;;;;5.60;3.00;;;;;;;38.85;22.94;100271.20;109411;1254;66618;-73
2023/07/05 11:18:21;;;;;;;4.30;3.10;;;;;;;38.99;22.84;100266.72;109625;1254;58871;-74
2023/07/05 11:20:54;;;;;;;3.00;2.70;;;;;;;39.14;22.79;100267.31;109466;1253;64933;-72
2023/07/05 11:23:43;;;;;;;4.30;2.70;;;;;;;39.29;22.28;100266.86;109558;1254;58943;-73
2023/07/05 11:26:10;;;;;;;3.80;2.90;;;;;;;39.42;21.68;100269.46;109580;1254;58905;-73
2023/07/05 11:28:42;;;;;;;2.70;2.40;;;;;;;39.58;21.34;100266.73;109565;1253;64948;-73
2023/07/05 11:31:09;;;;;;;2.70;2.30;;;;;;;39.76;20.82;100264.29;109571;1253;58996;-73
2023/07/05 11:33:37;;;;;;;3.90;2.30;;;;;;;39.92;20.32;100261.24;109566;1256;64048;-73